Time;durP1;ratioP1;P1;durP2;ratioP2;P2;SDS_P1;SDS_P2;PMS_P1;PMS_P2;Temp;Humidity;BMP_temperature;BMP_pressure;BME280_temperature;BME280_humidity;BME280_pressure;Samples;Min_cycle;Max_cycle;Signal;HPM_P1;HPM_P2
2023/05/02 00:02:09;;;;;;;;;14.00;14.00;;;;;12.65;63.39;100066.78;5119139;28;8878;-86
2023/05/02 00:04:37;;;;;;;;;16.00;15.50;;;;;12.65;63.34;100064.09;5118410;28;8831;-86
2023/05/02 00:07:05;;;;;;;;;14.25;14.25;;;;;12.64;63.33;100063.28;5119197;28;8842;-85
2023/05/02 00:09:33;;;;;;;;;18.00;15.25;;;;;12.63;62.63;100066.94;5119489;28;8850;-86
2023/05/02 00:12:01;;;;;;;;;16.00;15.25;;;;;12.59;63.21;100057.47;5119116;28;8816;-86
2023/05/02 00:14:29;;;;;;;;;19.00;16.00;;;;;12.56;63.54;100062.22;5119227;28;8859;-86
2023/05/02 00:16:57;;;;;;;;;19.25;18.75;;;;;12.51;63.30;100064.44;5119387;28;8839;-86
2023/05/02 00:19:24;;;;;;;;;16.00;15.00;;;;;12.46;63.47;100061.34;5119088;28;8832;-86
2023/05/02 00:21:52;;;;;;;;;20.75;18.50;;;;;12.39;63.42;100060.16;5119460;28;8840;-85
2023/05/02 00:24:20;;;;;;;;;19.00;17.50;;;;;12.32;63.46;100056.31;5119334;28;8843;-86
2023/05/02 00:26:48;;;;;;;;;20.75;17.75;;;;;12.25;63.77;100063.16;5119306;28;8881;-85
2023/05/02 00:29:16;;;;;;;;;13.25;12.50;;;;;12.18;64.31;100065.50;5119081;28;8839;-86
2023/05/02 00:31:44;;;;;;;;;20.00;18.00;;;;;12.12;64.22;100057.16;5118682;28;8840;-86
2023/05/02 00:34:12;;;;;;;;;14.75;13.50;;;;;12.05;64.45;100070.16;5117501;28;8844;-86
2023/05/02 00:36:39;;;;;;;;;12.75;11.00;;;;;12.00;64.72;100072.38;5117371;28;8862;-86
2023/05/02 00:39:08;;;;;;;;;17.25;15.75;;;;;11.99;64.88;100081.34;5116465;28;8923;-86
2023/05/02 00:41:36;;;;;;;;;22.00;17.00;;;;;12.01;64.36;100081.22;5117321;28;8838;-86
2023/05/02 00:44:03;;;;;;;;;16.50;15.00;;;;;12.01;64.34;100078.56;5117639;28;9610;-86
2023/05/02 00:46:31;;;;;;;;;15.25;15.00;;;;;12.01;64.22;100086.56;5118191;28;9557;-85
2023/05/02 00:48:59;;;;;;;;;23.00;18.50;;;;;12.02;64.69;100094.44;5118385;28;8836;-85
2023/05/02 00:51:27;;;;;;;;;13.50;10.50;;;;;12.02;64.41;100090.94;5118463;28;8831;-85
2023/05/02 00:53:56;;;;;;;;;20.50;20.50;;;;;12.04;64.64;100084.50;5119379;28;8832;-85
2023/05/02 00:56:24;;;;;;;;;24.25;22.25;;;;;12.06;64.14;100084.34;5119488;28;9501;-85
2023/05/02 00:58:51;;;;;;;;;18.50;17.00;;;;;12.07;64.16;100084.22;5120082;28;8831;-85
2023/05/02 01:01:19;;;;;;;;;22.50;20.75;;;;;12.09;64.23;100089.44;5120482;28;8916;-85
2023/05/02 01:03:47;;;;;;;;;18.00;16.00;;;;;12.10;64.52;100088.47;5119948;28;8913;-85
2023/05/02 01:06:15;;;;;;;;;24.50;22.50;;;;;12.12;64.57;100091.84;5119315;28;8815;-85
2023/05/02 01:08:43;;;;;;;;;22.25;20.25;;;;;12.12;64.13;100098.06;5117592;28;8836;-85
2023/05/02 01:11:11;;;;;;;;;25.25;22.75;;;;;12.13;64.02;100096.22;5118447;28;8846;-85
2023/05/02 01:13:38;;;;;;;;;21.25;18.00;;;;;12.15;63.98;100103.13;5118864;28;8832;-85
2023/05/02 01:16:06;;;;;;;;;26.00;22.00;;;;;12.16;64.37;100103.97;5119556;28;8827;-85
2023/05/02 01:18:34;;;;;;;;;19.50;15.50;;;;;12.16;64.18;100103.97;5118620;28;8869;-85
2023/05/02 01:21:02;;;;;;;;;24.50;23.75;;;;;12.16;64.20;100104.81;5118531;28;8990;-85
2023/05/02 01:23:29;;;;;;;;;27.50;24.00;;;;;12.17;64.34;100100.34;5118916;28;8863;-85
2023/05/02 01:25:57;;;;;;;;;30.00;23.25;;;;;12.18;64.48;100099.34;5118839;28;8863;-85
2023/05/02 01:28:25;;;;;;;;;16.75;15.50;;;;;12.16;64.03;100099.47;5118649;28;8816;-85
2023/05/02 01:30:53;;;;;;;;;27.25;21.25;;;;;12.15;64.19;100107.63;5118797;28;8839;-85
2023/05/02 01:33:21;;;;;;;;;26.25;19.00;;;;;12.14;64.68;100108.56;5118162;28;8840;-85
2023/05/02 01:35:49;;;;;;;;;16.25;15.75;;;;;12.14;64.51;100117.44;5118008;28;8835;-85
2023/05/02 01:38:16;;;;;;;;;24.75;23.50;;;;;12.13;64.58;100109.56;5118601;28;8820;-85
2023/05/02 01:40:44;;;;;;;;;26.75;26.00;;;;;12.12;64.25;100108.72;5118110;28;8820;-85
2023/05/02 01:43:12;;;;;;;;;24.50;23.50;;;;;12.12;64.27;100113.22;5118311;28;8832;-85
2023/05/02 01:45:39;;;;;;;;;26.00;24.25;;;;;12.10;64.50;100120.50;5118505;28;8856;-85
2023/05/02 01:48:07;;;;;;;;;24.25;18.50;;;;;12.10;64.68;100123.16;5118387;28;8843;-86
2023/05/02 01:50:35;;;;;;;;;23.75;23.00;;;;;12.10;64.93;100120.50;5117791;28;8840;-85
2023/05/02 01:53:03;;;;;;;;;28.00;27.00;;;;;12.10;64.44;100128.50;5117537;28;8858;-85
2023/05/02 01:55:31;;;;;;;;;23.00;21.50;;;;;12.11;64.96;100127.53;5118124;28;8848;-85
2023/05/02 01:57:59;;;;;;;;;17.50;15.50;;;;;12.09;65.19;100130.31;5118127;28;8836;-85
2023/05/02 02:00:27;;;;;;;;;18.25;18.25;;;;;12.09;64.94;100129.50;5117755;28;8820;-85
2023/05/02 02:02:55;;;;;;;;;25.50;24.00;;;;;12.08;65.14;100133.13;5117814;28;8882;-85
2023/05/02 02:05:22;;;;;;;;;21.25;18.25;;;;;12.07;65.07;100142.13;5117323;28;8845;-85
2023/05/02 02:07:50;;;;;;;;;24.25;21.25;;;;;12.06;65.08;100135.06;5117761;28;8836;-85
2023/05/02 02:10:17;;;;;;;;;26.50;24.00;;;;;12.05;65.57;100154.72;5117636;28;8845;-85
2023/05/02 02:12:45;;;;;;;;;32.25;29.50;;;;;12.04;65.66;100153.03;5118093;28;8848;-85
2023/05/02 02:15:13;;;;;;;;;23.75;19.50;;;;;12.02;64.82;100155.81;5116914;28;8852;-85
2023/05/02 02:17:42;;;;;;;;;31.75;28.00;;;;;12.01;65.44;100151.47;5117788;28;8871;-85
2023/05/02 02:20:10;;;;;;;;;22.50;21.50;;;;;12.01;65.11;100159.47;5117787;28;8840;-85
2023/05/02 02:22:37;;;;;;;;;28.75;25.75;;;;;12.00;65.71;100162.28;5117749;28;8844;-85
2023/05/02 02:25:05;;;;;;;;;20.00;15.75;;;;;11.98;64.95;100160.72;5117224;28;8827;-85
2023/05/02 02:27:33;;;;;;;;;28.25;24.75;;;;;11.95;65.63;100162.63;5117789;28;8831;-85
2023/05/02 02:30:01;;;;;;;;;16.00;15.50;;;;;11.92;65.17;100159.41;5117643;28;8870;-85
2023/05/02 02:32:29;;;;;;;;;22.25;21.50;;;;;11.92;65.59;100163.88;5117118;28;8900;-85
2023/05/02 02:34:58;;;;;;;;;31.25;26.50;;;;;11.92;65.10;100163.88;5117518;28;8940;-85
2023/05/02 02:37:26;;;;;;;;;23.50;20.00;;;;;11.92;65.86;100166.53;5116813;28;8820;-86
2023/05/02 02:39:53;;;;;;;;;22.00;21.00;;;;;11.90;65.68;100166.66;5116492;28;8832;-86
2023/05/02 02:42:21;;;;;;;;;22.00;20.00;;;;;11.89;65.72;100167.63;5116769;28;9540;-86
2023/05/02 02:44:49;;;;;;;;;24.25;21.00;;;;;11.86;65.55;100170.56;5117535;28;8930;-85
2023/05/02 02:47:16;;;;;;;;;26.75;25.75;;;;;11.85;66.02;100178.69;5117443;28;8852;-85
2023/05/02 02:49:44;;;;;;;;;26.50;23.00;;;;;11.82;65.92;100182.44;5117165;28;8847;-85
2023/05/02 02:52:12;;;;;;;;;27.50;25.00;;;;;11.80;65.92;100181.72;5117053;28;8846;-85
2023/05/02 02:54:40;;;;;;;;;27.25;24.75;;;;;11.79;66.29;100184.50;5116696;28;8850;-85
2023/05/02 02:57:07;;;;;;;;;23.00;21.50;;;;;11.75;66.34;100189.25;5116570;28;8920;-85
2023/05/02 02:59:35;;;;;;;;;23.00;21.50;;;;;11.74;66.00;100184.06;5116774;28;8835;-85
2023/05/02 03:02:03;;;;;;;;;31.00;24.00;;;;;11.71;66.28;100185.13;5116601;28;8831;-85
2023/05/02 03:04:31;;;;;;;;;23.75;21.75;;;;;11.72;66.51;100186.84;5116569;28;8974;-85
2023/05/02 03:06:59;;;;;;;;;32.25;27.25;;;;;11.72;65.91;100192.16;5116708;28;8836;-85
2023/05/02 03:09:29;;;;;;;;;26.50;22.00;;;;;11.71;66.59;100200.28;5116654;28;8848;-85
2023/05/02 03:11:56;;;;;;;;;23.00;21.50;;;;;11.68;66.11;100203.22;5115727;28;8824;-85
2023/05/02 03:14:24;;;;;;;;;15.50;13.00;;;;;11.66;66.10;100206.00;5116088;28;8848;-85
2023/05/02 03:16:52;;;;;;;;;34.75;25.00;;;;;11.63;66.89;100200.06;5115478;28;8840;-85
2023/05/02 03:19:20;;;;;;;;;18.00;15.50;;;;;11.61;66.16;100210.84;5116242;28;8828;-85
2023/05/02 03:21:47;;;;;;;;;23.75;21.75;;;;;11.61;66.23;100207.34;5115763;28;8816;-85
2023/05/02 03:24:17;;;;;;;;;25.75;22.75;;;;;11.61;66.47;100210.00;5116205;28;8876;-85
2023/05/02 03:26:46;;;;;;;;;30.25;27.00;;;;;11.58;66.34;100211.09;5116271;28;8840;-85
2023/05/02 03:29:14;;;;;;;;;26.75;25.00;;;;;11.58;66.51;100202.22;5115967;28;8840;-85
2023/05/02 03:31:42;;;;;;;;;24.25;19.75;;;;;11.56;66.62;100213.00;5117882;28;8901;-85
2023/05/02 03:34:10;;;;;;;;;25.00;23.50;;;;;11.54;66.21;100219.44;5122507;28;10180;-85
2023/05/02 03:36:37;;;;;;;;;30.25;28.00;;;;;11.54;66.43;100217.59;5122451;28;8847;-85
2023/05/02 03:39:05;;;;;;;;;15.75;15.75;;;;;11.54;66.61;100216.75;5123017;28;8848;-85
2023/05/02 03:41:33;;;;;;;;;22.00;21.25;;;;;11.54;66.48;100214.09;5122029;28;8850;-85
2023/05/02 03:44:01;;;;;;;;;27.00;21.75;;;;;11.53;66.99;100223.91;5122132;28;8874;-85
2023/05/02 03:46:29;;;;;;;;;19.50;17.00;;;;;11.53;66.54;100223.91;5122686;28;8851;-84
2023/05/02 03:48:57;;;;;;;;;25.25;21.75;;;;;11.52;66.89;100234.72;5122655;28;8828;-85
2023/05/02 03:51:24;;;;;;;;;23.00;18.50;;;;;11.50;66.94;100226.81;5122098;28;8840;-85
2023/05/02 03:53:52;;;;;;;;;20.00;18.50;;;;;11.48;66.85;100222.56;5122402;28;9255;-85
2023/05/02 03:56:20;;;;;;;;;20.75;18.50;;;;;11.46;67.01;100225.34;5122065;28;8847;-85
2023/05/02 03:58:47;;;;;;;;;17.50;15.75;;;;;11.44;66.82;100226.47;5126895;28;8871;-85
2023/05/02 04:01:15;;;;;;;;;16.75;15.50;;;;;11.42;67.25;100229.25;5130275;28;8840;-85
2023/05/02 04:03:43;;;;;;;;;15.50;14.50;;;;;11.42;67.24;100234.56;5129902;28;8863;-85
2023/05/02 04:06:11;;;;;;;;;19.50;15.50;;;;;11.40;67.08;100239.19;5129236;28;8986;-85
2023/05/02 04:08:39;;;;;;;;;16.50;15.25;;;;;11.41;67.25;100248.88;5126859;28;8986;-85
2023/05/02 04:11:07;;;;;;;;;21.00;18.50;;;;;11.41;67.16;100248.88;5129003;28;8832;-84
2023/05/02 04:13:35;;;;;;;;;15.00;15.00;;;;;11.40;67.26;100241.84;5130064;28;8823;-85
2023/05/02 04:16:03;;;;;;;;;11.75;10.50;;;;;11.40;67.47;100252.53;5130591;28;8858;-84
2023/05/02 04:18:31;;;;;;;;;19.00;16.00;;;;;11.41;66.94;100245.34;5132890;28;8839;-85
2023/05/02 04:20:59;;;;;;;;;14.50;14.50;;;;;11.40;67.39;100244.53;5133595;28;8840;-85
2023/05/02 04:23:26;;;;;;;;;18.50;16.00;;;;;11.39;66.72;100247.28;5131714;28;8828;-85
2023/05/02 04:25:55;;;;;;;;;23.50;15.75;;;;;11.39;67.18;100250.78;5127421;28;8836;-85
2023/05/02 04:28:23;;;;;;;;;16.00;14.00;;;;;11.39;67.22;100244.63;5133845;28;8851;-85
2023/05/02 04:30:50;;;;;;;;;17.50;16.00;;;;;11.40;67.44;100257.00;5134327;28;8877;-85
2023/05/02 04:33:18;;;;;;;;;8.00;6.00;;;;;11.39;67.40;100255.28;5138029;28;8835;-86
2023/05/02 04:35:46;;;;;;;;;19.00;15.50;;;;;11.39;67.13;100256.13;5140543;28;8836;-85
2023/05/02 04:38:14;;;;;;;;;11.00;11.00;;;;;11.39;66.84;100269.47;5129262;28;8866;-85
2023/05/02 04:40:41;;;;;;;;;7.50;7.00;;;;;11.40;67.47;100268.50;5128854;28;8859;-85
2023/05/02 04:43:09;;;;;;;;;17.25;14.50;;;;;11.40;67.08;100271.19;5127685;28;8840;-85
2023/05/02 04:45:37;;;;;;;;;14.50;14.00;;;;;11.39;66.97;100274.78;5120287;28;8862;-85
2023/05/02 04:48:05;;;;;;;;;15.25;13.00;;;;;11.40;67.01;100278.31;5119620;28;8824;-85
2023/05/02 04:50:33;;;;;;;;;4.25;2.50;;;;;11.38;67.61;100275.75;5120503;28;8828;-86
2023/05/02 04:53:01;;;;;;;;;14.00;11.50;;;;;11.39;67.54;100279.28;5121188;28;8848;-85
2023/05/02 04:55:29;;;;;;;;;6.50;3.50;;;;;11.40;67.21;100289.84;5118755;28;8879;-85
2023/05/02 04:57:57;;;;;;;;;13.00;12.00;;;;;11.42;66.81;100287.91;5118693;28;8820;-85
2023/05/02 05:00:24;;;;;;;;;13.00;11.50;;;;;11.45;67.28;100284.16;5118353;28;8828;-85
2023/05/02 05:02:52;;;;;;;;;13.50;11.00;;;;;11.48;67.14;100297.25;5118318;28;8844;-85
2023/05/02 05:05:20;;;;;;;;;15.75;13.50;;;;;11.48;67.25;100306.09;5118196;28;8828;-86
2023/05/02 05:07:48;;;;;;;;;6.50;6.00;;;;;11.46;67.14;100302.69;5118973;28;8871;-86
2023/05/02 05:10:16;;;;;;;;;8.75;7.50;;;;;11.46;67.07;100301.84;5118672;28;8824;-86
2023/05/02 05:12:45;;;;;;;;;14.00;12.75;;;;;11.44;67.36;100307.28;5118197;28;8916;-86
2023/05/02 05:15:13;;;;;;;;;10.50;10.50;;;;;11.43;67.58;100316.25;5117668;28;8840;-86
2023/05/02 05:17:40;;;;;;;;;17.00;15.50;;;;;11.43;67.53;100326.06;5117329;28;8848;-86
2023/05/02 05:20:09;;;;;;;;;10.00;8.75;;;;;11.39;67.70;100320.13;5117733;28;8948;-86
2023/05/02 05:22:37;;;;;;;;;12.50;11.50;;;;;11.38;67.62;100328.25;5117660;28;8964;-86
2023/05/02 05:25:05;;;;;;;;;12.25;9.25;;;;;11.36;67.20;100338.19;5118012;28;8840;-86
2023/05/02 05:27:32;;;;;;;;;10.00;9.75;;;;;11.35;67.84;100339.13;5117807;28;8852;-86
2023/05/02 05:30:00;;;;;;;;;19.00;15.00;;;;;11.33;67.40;100347.28;5118023;28;8850;-86
2023/05/02 05:32:28;;;;;;;;;11.50;10.50;;;;;11.30;67.85;100342.16;5116480;28;8819;-86
2023/05/02 05:34:58;;;;;;;;;13.50;13.00;;;;;11.27;67.82;100350.41;5116842;28;8840;-86
2023/05/02 05:37:25;;;;;;;;;15.00;12.00;;;;;11.25;68.24;100354.16;5115675;28;8878;-86
2023/05/02 05:39:53;;;;;;;;;10.00;10.00;;;;;11.23;68.00;100353.41;5116598;28;8882;-86
2023/05/02 05:42:21;;;;;;;;;8.25;8.00;;;;;11.21;67.96;100358.84;5115446;28;8840;-86
2023/05/02 05:44:48;;;;;;;;;6.50;6.00;;;;;11.20;68.10;100356.31;5116691;28;8835;-86
2023/05/02 05:47:17;;;;;;;;;10.75;9.00;;;;;11.19;67.69;100360.78;5115848;28;8832;-85
2023/05/02 05:49:44;;;;;;;;;11.25;7.50;;;;;11.19;68.71;100359.94;5117099;28;8882;-85
2023/05/02 05:52:12;;;;;;;;;13.00;12.25;;;;;11.16;68.32;100362.84;5116911;28;8847;-85
2023/05/02 05:54:40;;;;;;;;;12.75;11.50;;;;;11.14;68.09;100367.44;5115765;28;8862;-85
2023/05/02 05:57:09;;;;;;;;;8.75;8.00;;;;;11.11;68.55;100370.31;5116332;28;8860;-85
2023/05/02 05:59:37;;;;;;;;;12.75;12.00;;;;;11.10;68.63;100377.50;5116178;28;8866;-85
2023/05/02 06:02:05;;;;;;;;;14.50;12.00;;;;;11.10;68.22;100372.16;5116269;28;8840;-85
2023/05/02 06:04:33;;;;;;;;;12.75;12.00;;;;;11.10;68.38;100376.63;5115576;28;8839;-85
2023/05/02 06:07:00;;;;;;;;;8.75;7.50;;;;;11.10;68.34;100384.63;5115783;28;8832;-85
2023/05/02 06:09:28;;;;;;;;;11.50;9.00;;;;;11.10;68.24;100390.81;5115734;28;9510;-85
2023/05/02 06:11:56;;;;;;;;;14.50;12.50;;;;;11.12;68.39;100386.22;5120661;28;8965;-85
2023/05/02 06:14:24;;;;;;;;;8.00;8.00;;;;;11.15;68.61;100385.13;5122609;28;8835;-84
2023/05/02 06:16:51;;;;;;;;;6.00;5.50;;;;;11.16;68.73;100394.81;5121975;28;8839;-84
2023/05/02 06:19:19;;;;;;;;;2.50;2.50;;;;;11.17;68.50;100393.88;5124508;28;8848;-84
2023/05/02 06:21:47;;;;;;;;;8.00;5.00;;;;;11.18;68.89;100398.22;5113594;28;8875;-83
2023/05/02 06:24:15;;;;;;;;;2.00;2.00;;;;;11.23;68.75;100402.25;5105487;28;8868;-84
2023/05/02 06:26:42;;;;;;;;;3.25;3.00;;;;;11.27;68.22;100405.53;5104124;28;8842;-84
2023/05/02 06:29:10;;;;;;;;;3.50;3.50;;;;;11.29;68.50;100409.78;5103888;28;8857;-84
2023/05/02 06:31:38;;;;;;;;;3.00;3.00;;;;;11.33;68.91;100403.28;5102365;28;8840;-84
2023/05/02 06:34:05;;;;;;;;;3.25;3.25;;;;;11.39;68.92;100412.63;5100453;28;8846;-84
2023/05/02 06:36:33;;;;;;;;;3.00;3.00;;;;;11.46;68.76;100416.53;5100858;28;8876;-84
2023/05/02 06:39:01;;;;;;;;;3.50;3.00;;;;;11.55;68.23;100419.34;5099498;28;9212;-84
2023/05/02 06:41:29;;;;;;;;;3.75;3.75;;;;;11.67;68.44;100426.44;5100273;28;8873;-84
2023/05/02 06:43:57;;;;;;;;;6.00;5.00;;;;;11.82;68.14;100419.91;5100527;28;8864;-84
2023/05/02 06:46:24;;;;;;;;;4.00;3.00;;;;;11.97;67.56;100423.25;5099430;28;8889;-84
2023/05/02 06:48:53;;;;;;;;;0.00;0.00;;;;;12.02;67.91;100432.59;5100689;28;8932;-84
2023/05/02 06:51:21;;;;;;;;;3.25;3.25;;;;;11.98;68.06;100444.44;5098925;28;8869;-84
2023/05/02 06:53:49;;;;;;;;;4.00;3.50;;;;;11.93;67.95;100445.78;5097817;28;8849;-84
2023/05/02 06:56:16;;;;;;;;;3.50;3.00;;;;;11.87;67.90;100449.78;5097970;28;8854;-84
2023/05/02 06:58:44;;;;;;;;;2.00;1.50;;;;;11.85;68.10;100457.06;5097720;28;8842;-84
2023/05/02 07:01:12;;;;;;;;;3.75;3.50;;;;;11.83;68.26;100453.63;5095998;28;8856;-84
2023/05/02 07:03:40;;;;;;;;;3.25;3.00;;;;;11.84;68.45;100459.84;5097102;28;8867;-84
2023/05/02 07:06:08;;;;;;;;;5.00;4.00;;;;;11.87;68.47;100462.25;5095359;28;8864;-84
2023/05/02 07:08:36;;;;;;;;;0.75;0.75;;;;;11.92;68.44;100468.09;5098536;28;9781;-84
2023/05/02 07:11:04;;;;;;;;;3.00;2.00;;;;;12.00;68.21;100477.25;5102021;28;8845;-84
2023/05/02 07:13:32;;;;;;;;;4.25;3.75;;;;;12.04;68.06;100474.22;5099814;28;8837;-83
2023/05/02 07:16:00;;;;;;;;;6.00;4.00;;;;;12.12;68.15;100476.28;5102690;28;8850;-85
2023/05/02 07:18:28;;;;;;;;;3.75;3.00;;;;;12.21;67.70;100480.91;5102177;28;8866;-84
2023/05/02 07:20:55;;;;;;;;;1.00;1.00;;;;;12.25;67.67;100488.53;5098966;28;9541;-84
2023/05/02 07:23:23;;;;;;;;;3.75;3.75;;;;;12.28;67.62;100495.47;5099002;28;8856;-84
2023/05/02 07:25:52;;;;;;;;;4.00;4.00;;;;;12.30;67.73;100490.88;5098213;28;8849;-84
2023/05/02 07:28:20;;;;;;;;;3.00;1.00;;;;;12.34;67.57;100503.00;5098236;28;8967;-84
2023/05/02 07:30:48;;;;;;;;;2.00;2.00;;;;;12.38;68.13;100499.16;5099354;28;9500;-84
2023/05/02 07:33:16;;;;;;;;;3.25;3.00;;;;;12.40;67.54;100503.38;5095951;28;8932;-83
2023/05/02 07:35:44;;;;;;;;;4.00;3.00;;;;;12.39;67.48;100507.03;5094487;28;8850;-84
2023/05/02 07:38:13;;;;;;;;;6.50;3.00;;;;;12.39;67.89;100504.34;5093239;28;8904;-84
2023/05/02 07:40:40;;;;;;;;;6.00;4.00;;;;;12.39;68.16;100500.84;5094014;28;8862;-84
2023/05/02 07:43:08;;;;;;;;;4.00;4.00;;;;;12.42;68.14;100509.47;5094324;28;8876;-84
2023/05/02 07:45:37;;;;;;;;;6.00;4.00;;;;;12.44;68.11;100504.84;5095449;28;8842;-84
2023/05/02 07:48:05;;;;;;;;;6.00;5.00;;;;;12.48;68.15;100513.47;5096434;28;8909;-85
2023/05/02 07:50:34;;;;;;;;;3.00;3.00;;;;;12.47;67.66;100515.28;5099175;28;8862;-85
2023/05/02 07:53:02;;;;;;;;;0.00;0.00;;;;;12.45;67.56;100513.72;5107547;28;8822;-84
2023/05/02 07:55:32;;;;;;;;;3.00;3.00;;;;;12.44;67.98;100520.88;5102600;28;8852;-84
2023/05/02 07:57:59;;;;;;;;;2.00;2.00;;;;;12.43;68.11;100527.19;5101524;28;8838;-85
2023/05/02 08:00:27;;;;;;;;;3.50;3.00;;;;;12.43;67.90;100524.53;5101002;28;8873;-84
2023/05/02 08:02:56;;;;;;;;;4.50;4.00;;;;;12.39;67.54;100533.72;5102422;28;8822;-85
2023/05/02 08:05:24;;;;;;;;;4.00;3.50;;;;;12.34;68.22;100530.59;5102667;28;8838;-85
2023/05/02 08:07:52;;;;;;;;;4.00;3.75;;;;;12.31;68.10;100535.31;5101803;28;8907;-85
2023/05/02 08:10:20;;;;;;;;;5.00;4.50;;;;;12.25;68.17;100539.28;5100959;28;9460;-84
2023/05/02 08:12:47;;;;;;;;;3.00;3.00;;;;;12.18;68.72;100540.75;5101111;28;8856;-85
2023/05/02 08:15:15;;;;;;;;;6.00;5.00;;;;;12.16;68.97;100544.50;5099645;28;8894;-84
2023/05/02 08:17:43;;;;;;;;;5.50;5.50;;;;;12.14;68.51;100554.41;5101397;28;8827;-84
2023/05/02 08:20:11;;;;;;;;;4.00;4.00;;;;;12.08;68.70;100566.41;5103880;28;8846;-83
2023/05/02 08:22:39;;;;;;;;;1.00;1.00;;;;;11.90;69.08;100564.28;5101837;28;8841;-86
2023/05/02 08:25:06;;;;;;;;;1.00;0.50;;;;;11.59;69.91;100583.53;5103166;28;8834;-84
2023/05/02 08:27:35;;;;;;;;;2.50;2.00;;;;;11.30;70.95;100591.94;5102529;28;9538;-84
2023/05/02 08:30:03;;;;;;;;;1.00;1.00;;;;;11.03;71.49;100601.91;5103324;28;8865;-84
2023/05/02 08:32:35;;;;;;;;;0.00;0.00;;;;;10.80;72.09;100608.88;5104500;28;8907;-84
2023/05/02 08:35:03;;;;;;;;;1.00;1.00;;;;;10.67;72.55;100610.66;5103509;28;8857;-84
2023/05/02 08:37:31;;;;;;;;;0.75;0.75;;;;;10.54;72.82;100619.63;5104253;28;8826;-84
2023/05/02 08:39:59;;;;;;;;;1.00;1.00;;;;;10.41;73.17;100630.22;5105534;28;8912;-84
2023/05/02 08:42:27;;;;;;;;;4.50;3.00;;;;;10.31;73.46;100631.81;5105538;28;8834;-85
2023/05/02 08:44:55;;;;;;;;;1.00;1.00;;;;;10.23;73.77;100631.47;5105723;28;8834;-84
2023/05/02 08:47:23;;;;;;;;;4.00;3.00;;;;;10.20;74.08;100642.34;5106934;28;8830;-84
2023/05/02 08:49:52;;;;;;;;;3.00;2.00;;;;;10.18;74.10;100646.91;5106930;28;8850;-84
2023/05/02 08:52:20;;;;;;;;;3.50;3.25;;;;;10.17;74.08;100650.50;5108026;28;8850;-83
2023/05/02 08:54:50;;;;;;;;;3.50;3.00;;;;;10.22;73.74;100653.72;5106760;28;8845;-83
2023/05/02 08:57:18;;;;;;;;;5.00;2.50;;;;;10.29;73.25;100655.03;5107819;28;8849;-83
2023/05/02 08:59:47;;;;;;;;;4.00;3.75;;;;;10.34;73.28;100655.59;5106700;28;8849;-84
2023/05/02 09:02:15;;;;;;;;;4.00;4.00;;;;;10.40;73.46;100659.63;5105942;28;8845;-84
2023/05/02 09:04:43;;;;;;;;;3.50;3.25;;;;;10.46;72.77;100661.91;5106782;28;9038;-84
2023/05/02 09:07:11;;;;;;;;;0.50;0.50;;;;;10.51;72.75;100668.59;5106713;28;8861;-84
2023/05/02 09:09:39;;;;;;;;;3.75;3.75;;;;;10.51;72.36;100665.94;5107446;28;8858;-84
2023/05/02 09:12:07;;;;;;;;;6.00;5.00;;;;;10.53;72.61;100674.69;5108017;28;8891;-84
2023/05/02 09:14:35;;;;;;;;;2.00;1.00;;;;;10.58;72.76;100688.53;5105568;28;8892;-84
2023/05/02 09:17:04;;;;;;;;;3.00;1.00;;;;;10.60;72.29;100681.28;5106427;28;8826;-84
2023/05/02 09:19:32;;;;;;;;;3.50;3.50;;;;;10.64;72.76;100693.47;5106854;28;8845;-84
2023/05/02 09:22:00;;;;;;;;;1.00;1.00;;;;;10.68;72.69;100692.28;5106347;28;8834;-84
2023/05/02 09:24:27;;;;;;;;;3.00;3.00;;;;;10.72;72.42;100696.44;5107249;28;8974;-84
2023/05/02 09:26:55;;;;;;;;;3.25;3.00;;;;;10.76;72.04;100689.94;5107948;28;8837;-84
2023/05/02 09:29:24;;;;;;;;;3.75;3.75;;;;;10.76;72.16;100692.59;5105958;28;8853;-85
2023/05/02 09:31:52;;;;;;;;;6.00;4.00;;;;;10.76;72.45;100697.94;5105340;28;8830;-84
2023/05/02 09:34:23;;;;;;;;;3.25;1.00;;;;;10.79;72.38;100691.53;5105190;28;8853;-85
2023/05/02 09:36:52;;;;;;;;;5.50;3.50;;;;;10.83;71.82;100693.88;5105489;28;8840;-84
2023/05/02 09:39:21;;;;;;;;;4.00;4.00;;;;;10.87;72.39;100700.72;5106012;28;8830;-84
2023/05/02 09:41:52;;;;;;;;;6.50;3.75;;;;;10.88;71.98;100701.56;5103177;28;8987;-84
2023/05/02 09:44:21;;;;;;;;;3.25;3.00;;;;;10.84;72.07;100706.25;5103637;28;8846;-84
2023/05/02 09:46:49;;;;;;;;;4.50;1.00;;;;;10.80;72.70;100715.44;5103550;28;8850;-84
2023/05/02 09:49:18;;;;;;;;;6.00;4.00;;;;;10.80;72.41;100715.44;5102756;28;8842;-84
2023/05/02 09:51:46;;;;;;;;;4.00;3.00;;;;;10.79;72.36;100724.38;5102637;28;8846;-85
2023/05/02 09:54:14;;;;;;;;;5.00;3.50;;;;;10.79;72.30;100729.72;5105465;28;8957;-84
2023/05/02 09:56:42;;;;;;;;;3.50;3.00;;;;;10.80;72.39;100731.41;5103055;28;8846;-85
2023/05/02 09:59:10;;;;;;;;;3.00;3.00;;;;;10.82;72.39;100724.16;5103942;28;8891;-84
2023/05/02 10:01:38;;;;;;;;;2.00;2.00;;;;;10.82;72.03;100733.94;5102393;28;8883;-85
2023/05/02 10:04:06;;;;;;;;;3.25;3.00;;;;;10.86;72.19;100738.13;5102448;28;8862;-85
2023/05/02 10:06:35;;;;;;;;;6.50;6.00;;;;;10.91;71.50;100738.69;5104879;28;9593;-85
2023/05/02 10:09:02;;;;;;;;;3.50;3.00;;;;;10.97;71.47;100739.09;5103895;28;8852;-84
2023/05/02 10:11:30;;;;;;;;;2.00;1.50;;;;;10.97;71.32;100744.44;5103109;28;9149;-84
2023/05/02 10:13:58;;;;;;;;;1.00;1.00;;;;;10.96;71.39;100741.88;5102985;28;8858;-84
2023/05/02 10:16:27;;;;;;;;;3.75;3.00;;;;;10.99;70.84;100747.84;5101554;28;8861;-85
2023/05/02 10:18:55;;;;;;;;;3.00;1.00;;;;;11.06;70.87;100753.63;5100548;28;8899;-85
2023/05/02 10:21:23;;;;;;;;;3.75;3.00;;;;;11.10;71.23;100747.09;5100818;28;8900;-85
2023/05/02 10:23:52;;;;;;;;;4.00;3.25;;;;;11.10;70.76;100750.63;5102217;28;8857;-85
2023/05/02 10:26:20;;;;;;;;;3.25;3.00;;;;;11.08;70.74;100746.38;5103109;28;8865;-85
2023/05/02 10:28:48;;;;;;;;;4.00;4.00;;;;;11.07;70.76;100755.31;5103772;28;9219;-84
2023/05/02 10:31:16;;;;;;;;;3.50;3.00;;;;;11.08;71.28;100749.88;5104214;28;8964;-85
2023/05/02 10:33:44;;;;;;;;;4.00;3.50;;;;;11.12;70.90;100746.03;5108245;28;8834;-85
2023/05/02 10:36:13;;;;;;;;;3.00;3.00;;;;;11.15;70.60;100745.81;5108304;28;8915;-85
2023/05/02 10:38:41;;;;;;;;;3.50;3.25;;;;;11.14;71.10;100752.13;5105489;28;8916;-85
2023/05/02 10:41:08;;;;;;;;;3.00;3.00;;;;;11.09;71.33;100750.72;5104423;28;8850;-85
2023/05/02 10:43:37;;;;;;;;;5.00;3.00;;;;;11.02;71.43;100757.44;5102792;28;9257;-84
2023/05/02 10:46:05;;;;;;;;;6.50;4.25;;;;;10.96;71.12;100760.50;5102263;28;8942;-85
2023/05/02 10:48:33;;;;;;;;;3.00;3.00;;;;;10.90;71.28;100761.78;5103252;28;8891;-85
2023/05/02 10:51:01;;;;;;;;;3.75;3.25;;;;;10.87;71.52;100763.81;5105098;28;8826;-85
2023/05/02 10:53:29;;;;;;;;;4.00;3.25;;;;;10.87;71.43;100761.16;5105114;28;8861;-84
2023/05/02 10:55:57;;;;;;;;;3.00;3.00;;;;;10.85;71.26;100763.91;5103644;28;8949;-84
2023/05/02 10:58:25;;;;;;;;;3.25;3.00;;;;;10.87;71.07;100766.47;5103527;28;8854;-85
2023/05/02 11:00:53;;;;;;;;;3.50;3.00;;;;;10.89;71.12;100767.22;5103102;28;8841;-85
2023/05/02 11:03:23;;;;;;;;;3.00;1.00;;;;;10.92;71.38;100773.19;5103674;28;8850;-85
2023/05/02 11:05:51;;;;;;;;;3.25;3.25;;;;;10.92;71.20;100767.88;5103681;28;8837;-85
2023/05/02 11:08:19;;;;;;;;;7.00;6.00;;;;;10.92;71.00;100772.34;5106184;28;8838;-85
2023/05/02 11:10:49;;;;;;;;;3.00;3.00;;;;;10.92;71.05;100775.84;5106846;28;8838;-85
2023/05/02 11:13:17;;;;;;;;;6.25;4.00;;;;;10.91;70.51;100771.50;5101496;28;8904;-85
2023/05/02 11:15:46;;;;;;;;;4.00;3.00;;;;;10.91;70.79;100768.81;5101186;28;8868;-85
2023/05/02 11:18:14;;;;;;;;;4.00;4.00;;;;;10.93;71.17;100776.72;5101328;28;8830;-86
2023/05/02 11:20:43;;;;;;;;;5.50;4.50;;;;;10.95;71.07;100770.34;5100896;28;8846;-85
2023/05/02 11:23:11;;;;;;;;;4.50;3.75;;;;;10.99;70.64;100771.81;5102879;28;8904;-85
2023/05/02 11:25:42;;;;;;;;;6.25;6.25;;;;;11.05;70.62;100776.75;5102678;28;8830;-84
2023/05/02 11:28:10;;;;;;;;;3.00;3.00;;;;;11.15;70.40;100779.63;5102003;28;8895;-84